KMGR/MGR METAR and TAF weather

Enter ICAO airport designator
Station Type Date Time Source
KMGR METAR 2021/07/29 01:35 UTC NOAA

KMGR 290135Z AUTO 00000KT 10SM TS CLR 23/22 A3003 RMK AO2 LTG DSNT W AND NW


Station Type Date Time Source
KMGR Decoded METAR 2021/07/29 01:35 UTC NOAA

Moultrie, Moultrie Municipal Airport, GA, United States (KMGR) 31-05-05N 083-48-11W
Jul 28, 2021 - 09:35 PM EDT / 2021.07.29 0135 UTC
Wind: Calm:0
Visibility: 10 mile(s):0
Sky conditions: clear
Weather: thunder; Lightning observed
Temperature: 73 F (23 C)
Dew Point: 71 F (22 C)
Relative Humidity: 94%
Pressure (altimeter): 30.03 in. Hg (1016 hPa)
ob: KMGR 290135Z AUTO 00000KT 10SM TS CLR 23/22 A3003 RMK AO2 LTG DSNT W AND NW
cycle: 1

Station Type Date Time Source
KMGR TAF UTC NOAA

Error!

Example: see airport list